createdAt,value
2017-12-09T00:02:12.110Z,7.72
2017-12-09T00:04:40.975Z,7.78
2017-12-09T00:07:09.060Z,8.63
2017-12-09T00:09:37.883Z,7.37
2017-12-09T00:12:05.959Z,6.55
2017-12-09T00:14:34.024Z,7.18
2017-12-09T00:17:02.096Z,7.35
2017-12-09T00:19:30.163Z,6.07
2017-12-09T00:21:58.238Z,7.28
2017-12-09T00:24:26.311Z,6.68
2017-12-09T00:26:54.380Z,8.50
2017-12-09T00:29:22.709Z,5.47
2017-12-09T00:31:50.776Z,7.05
2017-12-09T00:34:19.100Z,7.30
2017-12-09T00:36:47.214Z,6.90
2017-12-09T00:39:15.280Z,6.95
2017-12-09T00:41:43.379Z,7.45
2017-12-09T00:44:12.212Z,6.95
2017-12-09T00:46:40.317Z,8.73
2017-12-09T00:49:08.388Z,7.55
2017-12-09T00:51:36.459Z,6.43
2017-12-09T00:54:04.531Z,8.85
2017-12-09T00:56:32.601Z,7.65
2017-12-09T00:59:01.447Z,6.90
2017-12-09T01:01:29.515Z,6.75
2017-12-09T01:03:57.611Z,6.75
2017-12-09T01:06:25.746Z,6.50
2017-12-09T01:08:53.820Z,6.95
2017-12-09T01:11:21.889Z,6.68
2017-12-09T01:13:49.970Z,6.80
2017-12-09T01:16:36.011Z,6.00
2017-12-09T01:19:04.086Z,7.30
2017-12-09T01:21:33.129Z,6.15
2017-12-09T01:24:01.202Z,6.03
2017-12-09T01:26:29.255Z,5.35
2017-12-09T01:28:57.384Z,6.20
2017-12-09T01:31:25.432Z,5.25
2017-12-09T01:33:53.532Z,5.40
2017-12-09T01:36:21.602Z,5.53
2017-12-09T01:38:49.759Z,5.93
2017-12-09T01:41:17.813Z,5.03
2017-12-09T01:43:45.885Z,6.20
2017-12-09T01:46:13.958Z,5.55
2017-12-09T01:48:42.034Z,5.95
2017-12-09T01:51:10.100Z,5.85
2017-12-09T01:53:38.165Z,6.70
2017-12-09T01:56:06.222Z,5.15
2017-12-09T01:58:34.280Z,5.80
2017-12-09T02:01:02.355Z,5.50
2017-12-09T02:03:30.423Z,5.70
2017-12-09T02:05:58.497Z,6.40
2017-12-09T02:08:26.551Z,5.45
2017-12-09T02:10:54.638Z,6.25
2017-12-09T02:13:22.693Z,6.40
2017-12-09T02:15:50.781Z,7.32
2017-12-09T02:18:18.832Z,6.05
2017-12-09T02:20:46.896Z,6.65
2017-12-09T02:23:15.719Z,5.80
2017-12-09T02:25:43.783Z,7.10
2017-12-09T02:28:11.865Z,7.45
2017-12-09T02:30:39.923Z,6.85
2017-12-09T02:33:08.040Z,5.50
2017-12-09T02:35:36.092Z,6.00
2017-12-09T02:38:04.165Z,6.65
2017-12-09T02:40:32.234Z,5.65
2017-12-09T02:43:00.290Z,5.30
2017-12-09T02:45:28.363Z,5.10
2017-12-09T02:47:56.439Z,5.05
2017-12-09T02:50:24.497Z,5.25
2017-12-09T02:52:52.587Z,4.85
2017-12-09T02:55:20.772Z,4.05
2017-12-09T02:57:48.835Z,4.07
2017-12-09T03:00:16.889Z,4.45
2017-12-09T03:02:44.981Z,5.43
2017-12-09T03:05:13.052Z,4.70
2017-12-09T03:07:41.110Z,4.00
2017-12-09T03:10:09.174Z,3.72
2017-12-09T03:12:37.233Z,3.85
2017-12-09T03:15:05.303Z,4.57
2017-12-09T03:17:33.378Z,4.12
2017-12-09T03:20:01.459Z,4.40
2017-12-09T03:22:29.526Z,4.12
2017-12-09T03:24:57.878Z,4.37
2017-12-09T03:27:25.938Z,4.07
2017-12-09T03:29:54.046Z,4.72
2017-12-09T03:32:22.109Z,5.10
2017-12-09T03:34:50.188Z,4.30
2017-12-09T03:37:18.242Z,3.80
2017-12-09T03:39:46.319Z,4.57
2017-12-09T03:42:14.393Z,4.90
2017-12-09T03:44:42.477Z,3.85
2017-12-09T03:47:10.550Z,4.72
2017-12-09T03:49:38.992Z,5.57
2017-12-09T03:52:07.063Z,5.53
2017-12-09T03:54:35.141Z,4.12
2017-12-09T03:57:03.209Z,5.20
2017-12-09T03:59:31.279Z,5.00
2017-12-09T04:01:59.351Z,4.72
2017-12-09T04:04:27.481Z,4.35
2017-12-09T04:06:55.494Z,7.30
2017-12-09T04:09:24.515Z,5.05
2017-12-09T04:11:52.686Z,5.43
2017-12-09T04:14:20.742Z,6.07
2017-12-09T04:16:48.816Z,6.18
2017-12-09T04:19:22.827Z,6.15
2017-12-09T04:21:50.883Z,6.80
2017-12-09T04:24:18.950Z,5.57
2017-12-09T04:26:47.022Z,5.80
2017-12-09T04:29:15.095Z,6.55
2017-12-09T04:31:43.162Z,6.60
2017-12-09T04:34:11.236Z,6.53
2017-12-09T04:36:39.312Z,6.25
2017-12-09T04:39:07.398Z,7.00
2017-12-09T04:41:35.462Z,6.57
2017-12-09T04:44:03.540Z,7.18
2017-12-09T04:46:31.611Z,6.97
2017-12-09T04:49:00.582Z,6.70
2017-12-09T04:51:28.666Z,7.87
2017-12-09T04:53:56.733Z,7.30
2017-12-09T04:56:24.798Z,8.23
2017-12-09T04:58:52.867Z,8.15
2017-12-09T05:01:20.939Z,8.15
2017-12-09T05:03:49.007Z,8.02
2017-12-09T05:06:17.079Z,7.62
2017-12-09T05:08:45.166Z,8.05
2017-12-09T05:11:13.239Z,7.35
2017-12-09T05:13:41.311Z,7.62
2017-12-09T05:16:09.484Z,7.90
2017-12-09T05:18:37.560Z,8.50
2017-12-09T05:21:05.631Z,8.10
2017-12-09T05:23:33.697Z,8.05
2017-12-09T05:26:01.779Z,8.88
2017-12-09T05:28:29.851Z,8.68
2017-12-09T05:30:57.923Z,8.02
2017-12-09T05:33:25.984Z,8.88
2017-12-09T05:35:54.072Z,8.52
2017-12-09T05:38:22.228Z,9.75
2017-12-09T05:40:50.314Z,9.88
2017-12-09T05:43:18.399Z,9.23
2017-12-09T05:45:47.795Z,8.98
2017-12-09T05:48:16.640Z,9.27
2017-12-09T05:50:44.691Z,11.32
2017-12-09T05:53:12.775Z,8.70
2017-12-09T05:55:40.831Z,11.02
2017-12-09T05:58:08.940Z,9.32
2017-12-09T06:00:37.001Z,9.65
2017-12-09T06:03:05.075Z,10.27
2017-12-09T06:05:33.140Z,9.23
2017-12-09T06:08:07.104Z,10.77
2017-12-09T06:10:35.601Z,9.02
2017-12-09T06:13:03.662Z,10.85
2017-12-09T06:15:31.727Z,10.13
2017-12-09T06:17:59.792Z,7.80
2017-12-09T06:20:27.856Z,10.10
2017-12-09T06:22:55.923Z,9.45
2017-12-09T06:25:24.755Z,8.85
2017-12-09T06:27:52.823Z,8.95
2017-12-09T06:30:21.193Z,8.68
2017-12-09T06:32:49.255Z,9.52
2017-12-09T06:35:17.314Z,8.98
2017-12-09T06:37:45.367Z,9.80
2017-12-09T06:40:14.198Z,9.25
2017-12-09T06:42:42.264Z,10.30
2017-12-09T06:45:10.365Z,9.38
2017-12-09T06:47:38.439Z,8.57
2017-12-09T06:50:06.502Z,8.25
2017-12-09T06:52:34.571Z,8.77
2017-12-09T06:55:02.651Z,9.05
2017-12-09T06:57:30.718Z,8.25
2017-12-09T06:59:58.791Z,8.90
2017-12-09T07:02:26.862Z,9.15
2017-12-09T07:04:54.952Z,8.75
2017-12-09T07:07:23.778Z,9.77
2017-12-09T07:09:51.870Z,8.25
2017-12-09T07:12:19.928Z,8.95
2017-12-09T07:14:47.987Z,9.48
2017-12-09T07:17:16.100Z,7.97
2017-12-09T07:19:44.153Z,8.50
2017-12-09T07:22:12.227Z,8.13
2017-12-09T07:24:40.299Z,8.13
2017-12-09T07:27:08.371Z,7.50
2017-12-09T07:29:36.441Z,8.18
2017-12-09T07:32:04.508Z,6.70
2017-12-09T07:34:32.574Z,8.25
2017-12-09T07:37:00.662Z,7.40
2017-12-09T07:39:28.739Z,7.30
2017-12-09T07:41:56.807Z,7.80
2017-12-09T07:44:24.867Z,6.55
2017-12-09T07:46:52.938Z,6.78
2017-12-09T07:49:21.005Z,7.15
2017-12-09T07:51:49.072Z,7.18
2017-12-09T07:54:17.148Z,6.90
2017-12-09T07:56:45.218Z,5.62
2017-12-09T07:59:13.290Z,6.18
2017-12-09T08:01:41.342Z,5.70
2017-12-09T08:04:09.410Z,5.10
2017-12-09T08:06:37.467Z,6.50
2017-12-09T08:09:05.537Z,6.32
2017-12-09T08:11:34.567Z,5.25
2017-12-09T08:14:02.650Z,6.05
2017-12-09T08:16:30.707Z,5.07
2017-12-09T08:18:58.778Z,4.32
2017-12-09T08:21:26.851Z,5.03
2017-12-09T08:23:54.943Z,5.53
2017-12-09T08:26:23.762Z,5.18
2017-12-09T08:28:51.882Z,4.32
2017-12-09T08:31:19.966Z,4.97
2017-12-09T08:33:48.027Z,4.97
2017-12-09T08:36:16.881Z,4.80
2017-12-09T08:38:44.943Z,5.05
2017-12-09T08:41:13.011Z,3.95
2017-12-09T08:43:41.099Z,5.10
2017-12-09T08:46:09.162Z,4.80
2017-12-09T08:48:37.269Z,6.45
2017-12-09T08:51:05.343Z,6.15
2017-12-09T08:53:33.513Z,6.45
2017-12-09T08:56:01.584Z,6.35
2017-12-09T08:58:29.659Z,5.80
2017-12-09T09:00:57.830Z,4.70
2017-12-09T09:03:25.900Z,6.15
2017-12-09T09:05:53.971Z,6.20
2017-12-09T09:08:22.042Z,6.65
2017-12-09T09:10:50.119Z,6.07
2017-12-09T09:13:18.286Z,6.90
2017-12-09T09:15:46.360Z,6.25
2017-12-09T09:18:14.428Z,6.57
2017-12-09T09:20:42.500Z,6.87
2017-12-09T09:23:10.574Z,5.43
2017-12-09T09:25:38.626Z,4.75
2017-12-09T09:28:06.818Z,4.45
2017-12-09T09:30:34.881Z,5.35
2017-12-09T09:33:02.935Z,3.78
2017-12-09T09:35:30.994Z,5.28
2017-12-09T09:37:59.069Z,4.20
2017-12-09T09:40:27.243Z,5.05
2017-12-09T09:42:55.342Z,5.80
2017-12-09T09:45:23.414Z,4.70
2017-12-09T09:47:51.487Z,5.00
2017-12-09T09:50:19.557Z,5.18
2017-12-09T09:52:48.317Z,5.35
2017-12-09T09:55:16.530Z,5.28
2017-12-09T09:57:46.058Z,4.87
2017-12-09T10:00:14.150Z,5.32
2017-12-09T10:02:42.221Z,5.65
2017-12-09T10:05:10.275Z,5.20
2017-12-09T10:07:38.352Z,6.05
2017-12-09T10:10:06.416Z,5.50
2017-12-09T10:12:35.298Z,5.53
2017-12-09T10:15:03.579Z,5.62
2017-12-09T10:17:31.697Z,5.75
2017-12-09T10:19:59.758Z,6.62
2017-12-09T10:22:27.832Z,6.65
2017-12-09T10:24:55.898Z,6.15
2017-12-09T10:27:23.985Z,5.90
2017-12-09T10:29:52.038Z,6.65
2017-12-09T10:32:20.111Z,7.30
2017-12-09T10:34:48.178Z,6.55
2017-12-09T10:37:16.281Z,6.40
2017-12-09T10:39:44.415Z,7.00
2017-12-09T10:42:12.482Z,6.57
2017-12-09T10:44:40.539Z,6.37
2017-12-09T10:47:08.605Z,7.65
2017-12-09T10:49:36.672Z,6.80
2017-12-09T10:52:04.767Z,7.72
2017-12-09T10:54:32.831Z,7.55
2017-12-09T10:57:00.909Z,9.90
2017-12-09T10:59:28.967Z,8.13
2017-12-09T11:01:57.047Z,8.65
2017-12-09T11:04:25.227Z,8.73
2017-12-09T11:06:53.293Z,9.32
2017-12-09T11:09:21.355Z,8.98
2017-12-09T11:11:49.422Z,7.25
2017-12-09T11:14:17.503Z,8.18
2017-12-09T11:16:45.575Z,9.40
2017-12-09T11:19:13.647Z,8.95
2017-12-09T11:21:41.708Z,8.40
2017-12-09T11:24:09.792Z,7.53
2017-12-09T11:26:38.323Z,8.35
2017-12-09T11:29:07.159Z,8.32
2017-12-09T11:31:35.230Z,8.75
2017-12-09T11:34:03.299Z,8.32
2017-12-09T11:36:31.378Z,9.10
2017-12-09T11:38:59.444Z,9.73
2017-12-09T11:41:27.525Z,8.40
2017-12-09T11:43:55.582Z,11.75
2017-12-09T11:46:23.655Z,11.30
2017-12-09T11:48:51.717Z,11.40
2017-12-09T11:51:19.788Z,11.80
2017-12-09T11:53:47.855Z,11.20
2017-12-09T11:56:15.930Z,12.40
2017-12-09T11:58:44.000Z,12.18
2017-12-09T12:01:12.085Z,11.75
2017-12-09T12:03:40.143Z,10.55
2017-12-09T12:06:08.222Z,11.38
2017-12-09T12:08:36.341Z,11.70
2017-12-09T12:11:05.184Z,12.85
2017-12-09T12:13:33.244Z,11.50
2017-12-09T12:16:01.326Z,11.43
2017-12-09T12:18:29.424Z,11.27
2017-12-09T12:20:58.260Z,12.20
2017-12-09T12:23:26.335Z,12.25
2017-12-09T12:25:54.439Z,13.02
2017-12-09T12:28:22.591Z,10.88
2017-12-09T12:30:50.658Z,11.85
2017-12-09T12:33:18.732Z,13.20
2017-12-09T12:35:46.882Z,11.27
2017-12-09T12:38:14.959Z,11.23
2017-12-09T12:40:43.035Z,13.13
2017-12-09T12:43:11.108Z,16.37
2017-12-09T12:45:39.183Z,13.68
2017-12-09T12:48:07.259Z,9.63
2017-12-09T12:50:35.343Z,9.85
2017-12-09T12:53:03.416Z,8.75
2017-12-09T12:55:31.476Z,8.43
2017-12-09T12:57:59.569Z,9.40
2017-12-09T13:00:28.399Z,7.57
2017-12-09T13:02:56.469Z,7.75
2017-12-09T13:05:24.547Z,7.97
2017-12-09T13:07:52.610Z,5.82
2017-12-09T13:10:20.679Z,6.65
2017-12-09T13:12:48.790Z,6.80
2017-12-09T13:15:16.978Z,6.47
2017-12-09T13:17:45.053Z,6.30
2017-12-09T13:20:13.115Z,7.28
2017-12-09T13:22:41.195Z,6.05
2017-12-09T13:25:09.279Z,7.05
2017-12-09T13:27:37.420Z,8.25
2017-12-09T13:30:05.503Z,5.00
2017-12-09T13:32:33.579Z,6.20
2017-12-09T13:35:01.735Z,5.68
2017-12-09T13:37:29.809Z,6.78
2017-12-09T13:39:57.890Z,5.70
2017-12-09T13:42:25.966Z,5.85
2017-12-09T13:44:54.022Z,5.93
2017-12-09T13:47:22.110Z,5.93
2017-12-09T13:49:50.942Z,6.10
2017-12-09T13:52:19.063Z,6.03
2017-12-09T13:54:47.138Z,5.43
2017-12-09T13:57:15.316Z,5.80
2017-12-09T13:59:44.385Z,6.10
2017-12-09T14:02:12.463Z,5.70
2017-12-09T14:04:40.646Z,6.10
2017-12-09T14:07:09.109Z,5.78
2017-12-09T14:09:37.270Z,7.10
2017-12-09T14:12:05.337Z,5.80
2017-12-09T14:14:33.412Z,6.03
2017-12-09T14:17:01.482Z,5.85
2017-12-09T14:19:30.183Z,9.48
2017-12-09T14:21:58.539Z,12.30
2017-12-09T14:24:27.843Z,15.50
2017-12-09T14:26:55.951Z,9.98
2017-12-09T14:29:24.841Z,16.70
2017-12-09T14:31:53.690Z,14.55
2017-12-09T14:34:21.792Z,10.68
2017-12-09T14:36:49.878Z,7.20
2017-12-09T14:39:18.742Z,10.07
2017-12-09T14:41:46.816Z,10.70
2017-12-09T14:44:14.982Z,7.90
2017-12-09T14:46:43.057Z,5.30
2017-12-09T14:49:11.132Z,7.28
2017-12-09T14:51:40.054Z,6.30
2017-12-09T14:54:08.133Z,6.00
2017-12-09T14:56:36.272Z,6.07
2017-12-09T14:59:04.354Z,5.10
2017-12-09T15:01:38.805Z,4.20
2017-12-09T15:04:07.818Z,4.43
2017-12-09T15:06:35.911Z,4.60
2017-12-09T15:09:03.978Z,4.78
2017-12-09T15:11:32.215Z,3.47
2017-12-09T15:14:00.364Z,5.50
2017-12-09T15:16:29.204Z,4.87
2017-12-09T15:18:57.289Z,4.43
2017-12-09T15:21:25.359Z,4.18
2017-12-09T15:23:53.589Z,5.05
2017-12-09T15:26:21.659Z,3.62
2017-12-09T15:28:49.735Z,4.05
2017-12-09T15:31:17.795Z,3.55
2017-12-09T15:33:45.868Z,4.45
2017-12-09T15:36:13.938Z,3.40
2017-12-09T15:38:42.077Z,3.92
2017-12-09T15:41:12.948Z,3.75
2017-12-09T15:43:41.024Z,4.00
2017-12-09T15:46:09.119Z,4.00
2017-12-09T15:48:37.203Z,4.90
2017-12-09T15:51:05.268Z,4.82
2017-12-09T15:56:15.384Z,4.62
2017-12-09T15:58:43.469Z,4.10
2017-12-09T16:01:11.613Z,4.25
2017-12-09T16:03:40.435Z,5.10
2017-12-09T16:06:08.508Z,4.07
2017-12-09T16:08:36.571Z,4.70
2017-12-09T16:11:04.686Z,7.25
2017-12-09T16:13:32.935Z,4.07
2017-12-09T16:16:01.009Z,5.55
2017-12-09T16:18:29.072Z,6.15
2017-12-09T16:20:57.138Z,6.35
2017-12-09T16:23:25.240Z,6.20
2017-12-09T16:25:53.414Z,6.05
2017-12-09T16:28:21.481Z,6.07
2017-12-09T16:30:49.568Z,5.12
2017-12-09T16:33:17.727Z,4.93
2017-12-09T16:35:45.799Z,6.45
2017-12-09T16:38:13.874Z,6.62
2017-12-09T16:40:42.047Z,5.85
2017-12-09T16:43:10.132Z,5.82
2017-12-09T16:45:39.038Z,5.97
2017-12-09T16:48:07.119Z,5.65
2017-12-09T16:50:35.189Z,4.93
2017-12-09T16:53:03.280Z,6.75
2017-12-09T16:55:31.351Z,5.70
2017-12-09T16:57:59.431Z,5.65
2017-12-09T17:00:27.514Z,6.30
2017-12-09T17:02:55.582Z,6.12
2017-12-09T17:05:23.669Z,6.43
2017-12-09T17:07:51.856Z,6.25
2017-12-09T17:10:20.035Z,5.32
2017-12-09T17:12:48.892Z,5.80
2017-12-09T17:15:17.029Z,6.22
2017-12-09T17:17:45.103Z,6.62
2017-12-09T17:20:13.187Z,6.28
2017-12-09T17:22:42.257Z,6.57
2017-12-09T17:25:10.340Z,6.53
2017-12-09T17:27:38.469Z,6.70
2017-12-09T17:30:06.531Z,6.35
2017-12-09T17:32:34.603Z,6.50
2017-12-09T17:35:02.676Z,5.70
2017-12-09T17:37:30.751Z,5.93
2017-12-09T17:39:58.819Z,6.72
2017-12-09T17:42:26.895Z,7.43
2017-12-09T17:44:54.959Z,5.95
2017-12-09T17:50:23.963Z,8.20
2017-12-09T17:52:52.030Z,7.28
2017-12-09T17:55:20.154Z,6.90
2017-12-09T17:57:48.229Z,6.70
2017-12-09T18:00:19.412Z,7.68
2017-12-09T18:02:47.503Z,6.55
2017-12-09T18:05:15.611Z,5.53
2017-12-09T18:07:44.444Z,7.40
2017-12-09T18:10:13.435Z,6.72
2017-12-09T18:12:41.668Z,8.20
2017-12-09T18:15:10.504Z,6.12
2017-12-09T18:17:38.568Z,7.32
2017-12-09T18:20:06.687Z,6.50
2017-12-09T18:22:35.517Z,6.60
2017-12-09T18:25:03.762Z,6.37
2017-12-09T18:27:32.625Z,7.28
2017-12-09T18:30:00.699Z,7.93
2017-12-09T18:32:28.758Z,7.35
2017-12-09T18:34:56.824Z,7.25
2017-12-09T18:37:24.901Z,8.35
2017-12-09T18:39:52.975Z,8.32
2017-12-09T18:42:21.030Z,6.18
2017-12-09T18:44:49.168Z,8.63
2017-12-09T18:47:17.246Z,9.13
2017-12-09T18:49:45.359Z,8.00
2017-12-09T18:52:13.444Z,9.52
2017-12-09T18:54:41.538Z,8.02
2017-12-09T18:57:09.607Z,8.43
2017-12-09T18:59:37.718Z,8.18
2017-12-09T19:02:05.860Z,7.70
2017-12-09T19:04:33.954Z,9.43
2017-12-09T19:07:02.019Z,8.00
2017-12-09T19:09:30.079Z,9.15
2017-12-09T19:11:58.147Z,8.60
2017-12-09T19:14:26.201Z,9.23
2017-12-09T19:16:54.264Z,8.27
2017-12-09T19:19:23.095Z,8.20
2017-12-09T19:21:51.172Z,7.45
2017-12-09T19:24:19.239Z,8.30
2017-12-09T19:26:47.329Z,7.60
2017-12-09T19:29:16.390Z,6.45
2017-12-09T19:31:44.453Z,7.97
2017-12-09T19:34:12.553Z,7.87
2017-12-09T19:36:40.729Z,8.15
2017-12-09T19:39:08.782Z,8.45
2017-12-09T19:41:36.865Z,7.65
2017-12-09T19:44:04.936Z,7.18
2017-12-09T19:46:33.006Z,8.82
2017-12-09T19:49:01.085Z,6.95
2017-12-09T19:51:29.953Z,7.32
2017-12-09T19:53:58.027Z,8.18
2017-12-09T19:56:26.099Z,8.70
2017-12-09T19:58:54.168Z,8.45
2017-12-09T20:01:22.240Z,7.32
2017-12-09T20:03:50.327Z,9.63
2017-12-09T20:06:18.454Z,7.78
2017-12-09T20:08:46.506Z,8.35
2017-12-09T20:11:15.339Z,9.15
2017-12-09T20:13:43.429Z,7.87
2017-12-09T20:16:11.607Z,7.97
2017-12-09T20:18:39.780Z,9.75
2017-12-09T20:21:07.950Z,9.10
2017-12-09T20:23:36.140Z,8.82
2017-12-09T20:26:04.193Z,9.35
2017-12-09T20:28:32.268Z,10.57
2017-12-09T20:31:00.353Z,9.45
2017-12-09T20:33:28.415Z,9.82
2017-12-09T20:35:56.487Z,10.98
2017-12-09T20:38:24.709Z,11.52
2017-12-09T20:40:52.891Z,10.13
2017-12-09T20:43:20.971Z,11.45
2017-12-09T20:45:49.062Z,9.80
2017-12-09T20:48:17.123Z,11.12
2017-12-09T20:50:45.215Z,8.60
2017-12-09T20:53:13.273Z,11.63
2017-12-09T20:55:41.387Z,10.50
2017-12-09T20:58:10.219Z,12.50
2017-12-09T21:00:38.283Z,11.85
2017-12-09T21:03:06.350Z,11.88
2017-12-09T21:05:34.729Z,11.40
2017-12-09T21:08:02.795Z,11.60
2017-12-09T21:10:30.850Z,9.30
2017-12-09T21:12:58.918Z,11.15
2017-12-09T21:15:26.988Z,12.32
2017-12-09T21:17:55.054Z,13.55
2017-12-09T21:20:23.127Z,10.35
2017-12-09T21:22:51.189Z,11.63
2017-12-09T21:25:19.260Z,11.10
2017-12-09T21:27:47.329Z,11.25
2017-12-09T21:30:15.396Z,12.82
2017-12-09T21:32:44.232Z,10.70
2017-12-09T21:35:12.306Z,13.62
2017-12-09T21:37:40.370Z,11.07
2017-12-09T21:40:08.443Z,12.55
2017-12-09T21:42:36.518Z,12.90
2017-12-09T21:45:04.578Z,13.35
2017-12-09T21:47:32.671Z,9.75
2017-12-09T21:50:00.760Z,10.98
2017-12-09T21:52:28.814Z,11.90
2017-12-09T21:54:56.882Z,11.60
2017-12-09T21:57:24.950Z,12.85
2017-12-09T21:59:53.010Z,10.13
2017-12-09T22:02:21.072Z,10.77
2017-12-09T22:04:49.757Z,12.10
2017-12-09T22:07:17.810Z,11.07
2017-12-09T22:09:46.035Z,11.00
2017-12-09T22:12:14.082Z,10.80
2017-12-09T22:14:42.152Z,10.45
2017-12-09T22:17:10.273Z,10.48
2017-12-09T22:19:38.376Z,9.93
2017-12-09T22:22:06.447Z,9.68
2017-12-09T22:24:34.505Z,10.68
2017-12-09T22:27:02.578Z,11.75
2017-12-09T22:29:30.683Z,9.93
2017-12-09T22:31:58.764Z,11.82
2017-12-09T22:34:26.826Z,10.68
2017-12-09T22:36:54.896Z,11.02
2017-12-09T22:39:23.016Z,10.15
2017-12-09T22:41:51.051Z,11.98
2017-12-09T22:44:19.102Z,10.48
2017-12-09T22:46:47.176Z,9.93
2017-12-09T22:49:15.225Z,9.98
2017-12-09T22:51:43.305Z,10.45
2017-12-09T22:54:11.390Z,9.60
2017-12-09T22:56:39.459Z,9.80
2017-12-09T22:59:07.541Z,9.10
2017-12-09T23:01:35.598Z,8.93
2017-12-09T23:04:03.654Z,9.68
2017-12-09T23:06:31.775Z,9.85
2017-12-09T23:09:00.611Z,10.45
2017-12-09T23:11:28.678Z,10.32
2017-12-09T23:13:56.737Z,11.30
2017-12-09T23:16:24.813Z,11.15
2017-12-09T23:18:52.881Z,12.55
2017-12-09T23:21:20.958Z,12.98
2017-12-09T23:23:49.034Z,13.68
2017-12-09T23:26:17.086Z,13.43
2017-12-09T23:28:45.154Z,12.35
2017-12-09T23:31:13.214Z,12.45
2017-12-09T23:33:41.274Z,12.50
2017-12-09T23:36:09.343Z,13.62
2017-12-09T23:38:38.171Z,12.07
2017-12-09T23:41:06.236Z,12.25
2017-12-09T23:43:34.304Z,12.75
2017-12-09T23:46:02.370Z,11.52
2017-12-09T23:48:30.790Z,13.27
2017-12-09T23:50:58.847Z,12.77
2017-12-09T23:53:26.916Z,12.70
2017-12-09T23:55:54.966Z,11.20
2017-12-09T23:58:23.034Z,12.25
